createdAt,value
2023-03-17T00:01:41.071Z,-1.47
2023-03-17T00:04:45.154Z,-1.45
2023-03-17T00:07:49.360Z,-1.50
2023-03-17T00:10:53.512Z,-1.53
2023-03-17T00:13:57.817Z,-1.56
2023-03-17T00:17:03.225Z,-1.55
2023-03-17T00:20:13.148Z,-1.57
2023-03-17T00:23:20.828Z,-1.57
2023-03-17T00:26:25.515Z,-1.58
2023-03-17T00:29:29.466Z,-1.58
2023-03-17T00:32:34.950Z,-1.57
2023-03-17T00:35:40.950Z,-1.56
2023-03-17T00:38:46.155Z,-1.60
2023-03-17T00:41:50.035Z,-1.56
2023-03-17T00:44:53.907Z,-1.53
2023-03-17T00:47:59.401Z,-1.50
2023-03-17T00:51:03.359Z,-1.49
2023-03-17T00:54:07.995Z,-1.49
2023-03-17T00:57:12.824Z,-1.51
2023-03-17T01:00:24.591Z,-1.51
2023-03-17T01:03:29.917Z,-1.53
2023-03-17T01:06:33.957Z,-1.62
2023-03-17T01:09:38.313Z,-1.67
2023-03-17T01:12:42.726Z,-1.75
2023-03-17T01:15:49.744Z,-1.81
2023-03-17T01:18:55.123Z,-1.83
2023-03-17T01:21:59.728Z,-1.86
2023-03-17T01:25:04.969Z,-1.88
2023-03-17T01:28:11.254Z,-1.90
2023-03-17T01:31:18.126Z,-1.91
2023-03-17T01:34:23.427Z,-1.93
2023-03-17T01:37:28.708Z,-1.96
2023-03-17T01:40:35.567Z,-1.97
2023-03-17T01:43:39.962Z,-1.97
2023-03-17T01:46:44.149Z,-1.99
2023-03-17T01:49:49.575Z,-2.02
2023-03-17T01:52:53.955Z,-1.97
2023-03-17T01:55:59.098Z,-1.95
2023-03-17T01:59:08.780Z,-1.97
2023-03-17T02:02:19.111Z,-2.00
2023-03-17T02:05:27.752Z,-2.03
2023-03-17T02:08:32.011Z,-2.07
2023-03-17T02:11:40.897Z,-2.10
2023-03-17T02:14:45.280Z,-2.17
2023-03-17T02:17:51.098Z,-2.26
2023-03-17T02:21:47.744Z,-2.32
2023-03-17T02:24:57.180Z,-2.35
2023-03-17T02:28:10.832Z,-2.38
2023-03-17T02:31:16.813Z,-2.43
2023-03-17T02:34:21.190Z,-2.45
2023-03-17T02:37:26.623Z,-2.46
2023-03-17T02:40:30.847Z,-2.48
2023-03-17T02:43:35.174Z,-2.47
2023-03-17T02:46:38.911Z,-2.46
2023-03-17T02:49:44.948Z,-2.44
2023-03-17T02:52:50.741Z,-2.41
2023-03-17T02:55:54.736Z,-2.37
2023-03-17T02:58:58.673Z,-2.34
2023-03-17T03:02:03.166Z,-2.37
2023-03-17T03:05:08.743Z,-2.42
2023-03-17T03:08:14.397Z,-2.42
2023-03-17T03:11:18.327Z,-2.40
2023-03-17T03:14:22.354Z,-2.42
2023-03-17T03:17:25.972Z,-2.41
2023-03-17T03:20:30.191Z,-2.42
2023-03-17T03:23:35.923Z,-2.41
2023-03-17T03:26:40.046Z,-2.44
2023-03-17T03:29:43.771Z,-2.50
2023-03-17T03:32:48.607Z,-2.55
2023-03-17T03:35:52.836Z,-2.60
2023-03-17T03:38:58.758Z,-2.67
2023-03-17T03:42:02.562Z,-2.66
2023-03-17T03:45:07.864Z,-2.63
2023-03-17T03:48:12.399Z,-2.60
2023-03-17T03:51:16.974Z,-2.56
2023-03-17T03:54:22.112Z,-2.55
2023-03-17T03:57:26.611Z,-2.55
2023-03-17T04:00:30.411Z,-2.56
2023-03-17T04:03:34.785Z,-2.64
2023-03-17T04:06:39.407Z,-2.69
2023-03-17T04:09:45.897Z,-2.70
2023-03-17T04:12:49.676Z,-2.76
2023-03-17T04:15:53.993Z,-2.81
2023-03-17T04:18:57.733Z,-2.87
2023-03-17T04:22:01.921Z,-2.85
2023-03-17T04:25:08.369Z,-2.86
2023-03-17T04:28:12.450Z,-2.82
2023-03-17T04:31:16.495Z,-2.79
2023-03-17T04:34:21.257Z,-2.75
2023-03-17T04:37:26.124Z,-2.76
2023-03-17T04:40:32.177Z,-2.78
2023-03-17T04:43:36.068Z,-2.78
2023-03-17T04:46:40.539Z,-2.76
2023-03-17T04:49:44.108Z,-2.75
2023-03-17T04:52:48.529Z,-2.74
2023-03-17T04:55:53.792Z,-2.72
2023-03-17T04:58:58.013Z,-2.70
2023-03-17T05:02:02.402Z,-2.67
2023-03-17T05:05:07.646Z,-2.69
2023-03-17T05:08:11.353Z,-2.64
2023-03-17T05:11:17.875Z,-2.56
2023-03-17T05:14:22.511Z,-2.49
2023-03-17T05:17:26.719Z,-2.44
2023-03-17T05:20:31.865Z,-2.40
2023-03-17T05:23:36.956Z,-2.32
2023-03-17T05:26:42.130Z,-2.26
2023-03-17T05:29:46.220Z,-2.24
2023-03-17T05:32:49.881Z,-2.15
2023-03-17T05:35:54.516Z,-2.08
2023-03-17T05:38:58.157Z,-2.00
2023-03-17T05:42:03.629Z,-1.91
2023-03-17T05:45:08.912Z,-1.80
2023-03-17T05:48:13.463Z,-1.71
2023-03-17T05:51:17.415Z,-1.63
2023-03-17T05:54:21.616Z,-1.55
2023-03-17T05:57:26.717Z,-1.45
2023-03-17T06:00:31.038Z,-1.34
2023-03-17T06:03:35.041Z,-1.26
2023-03-17T06:06:39.148Z,-1.13
2023-03-17T06:09:42.842Z,-0.99
2023-03-17T06:12:48.590Z,-0.85
2023-03-17T06:15:53.329Z,-0.74
2023-03-17T06:18:57.695Z,-0.62
2023-03-17T06:22:01.933Z,-0.53
2023-03-17T06:25:06.740Z,-0.45
2023-03-17T06:28:12.109Z,-0.36
2023-03-17T06:31:16.369Z,-0.26
2023-03-17T06:34:21.158Z,-0.19
2023-03-17T06:37:25.653Z,-0.11
2023-03-17T06:40:29.594Z,-0.01
2023-03-17T06:43:35.522Z,0.12
2023-03-17T06:46:39.200Z,0.24
2023-03-17T06:49:43.303Z,0.39
2023-03-17T06:52:47.192Z,0.53
2023-03-17T06:55:51.278Z,0.66
2023-03-17T06:58:56.270Z,0.77
2023-03-17T07:02:00.619Z,0.94
2023-03-17T07:05:06.327Z,1.08
2023-03-17T07:08:11.986Z,1.22
2023-03-17T07:11:15.934Z,1.45
2023-03-17T07:14:21.273Z,1.64
2023-03-17T07:17:25.249Z,1.84
2023-03-17T07:20:29.950Z,2.03
2023-03-17T07:23:33.742Z,2.22
2023-03-17T07:26:37.655Z,2.36
2023-03-17T07:29:42.853Z,2.50
2023-03-17T07:32:47.251Z,2.60
2023-03-17T07:35:51.465Z,2.81
2023-03-17T07:38:56.026Z,2.95
2023-03-17T07:42:00.189Z,3.07
2023-03-17T07:45:08.073Z,3.27
2023-03-17T07:48:11.781Z,3.36
2023-03-17T07:51:19.138Z,3.46
2023-03-17T07:54:22.739Z,3.59
2023-03-17T07:57:27.279Z,3.70
2023-03-17T08:00:32.633Z,3.77
2023-03-17T08:03:40.615Z,3.88
2023-03-17T08:06:46.477Z,3.97
2023-03-17T08:09:50.717Z,4.05
2023-03-17T08:12:54.296Z,4.18
2023-03-17T08:16:00.008Z,4.33
2023-03-17T08:19:04.916Z,4.45
2023-03-17T08:22:09.697Z,4.54
2023-03-17T08:25:13.372Z,4.66
2023-03-17T08:28:17.386Z,4.79
2023-03-17T08:31:23.855Z,4.88
2023-03-17T08:34:27.955Z,4.96
2023-03-17T08:37:31.545Z,5.07
2023-03-17T08:40:36.763Z,5.17
2023-03-17T08:43:42.707Z,5.30
2023-03-17T08:46:49.661Z,5.37
2023-03-17T08:49:56.220Z,5.48
2023-03-17T08:53:00.182Z,5.61
2023-03-17T08:56:07.036Z,5.71
2023-03-17T08:59:12.513Z,5.78
2023-03-17T09:02:18.042Z,5.88
2023-03-17T09:05:22.427Z,5.99
2023-03-17T09:08:27.670Z,6.11
2023-03-17T09:11:32.855Z,6.18
2023-03-17T09:14:43.457Z,6.31
2023-03-17T09:17:49.681Z,6.46
2023-03-17T09:20:53.328Z,6.56
2023-03-17T09:23:58.009Z,6.68
2023-03-17T09:27:02.408Z,6.85
2023-03-17T09:30:07.570Z,7.06
2023-03-17T09:33:13.098Z,7.26
2023-03-17T09:36:17.116Z,7.53
2023-03-17T09:39:22.520Z,7.68
2023-03-17T09:42:52.490Z,7.79
2023-03-17T09:45:57.457Z,7.93
2023-03-17T09:49:08.818Z,8.08
2023-03-17T09:52:16.008Z,8.21
2023-03-17T09:55:29.290Z,8.41
2023-03-17T09:58:35.650Z,8.47
2023-03-17T10:01:44.292Z,8.47
2023-03-17T10:04:49.634Z,8.60
2023-03-17T10:08:19.060Z,8.80
2023-03-17T10:11:41.779Z,9.09
2023-03-17T10:14:59.869Z,9.31
2023-03-17T10:18:11.361Z,9.60
2023-03-17T10:21:24.433Z,9.68
2023-03-17T10:24:32.775Z,9.81
2023-03-17T10:27:39.426Z,10.01
2023-03-17T10:30:43.485Z,10.25
2023-03-17T10:33:53.414Z,10.36
2023-03-17T10:37:05.418Z,10.45
2023-03-17T10:40:22.221Z,10.54
2023-03-17T10:43:32.043Z,10.63
2023-03-17T10:46:36.071Z,10.70
2023-03-17T10:49:39.785Z,10.73
2023-03-17T10:52:48.080Z,10.71
2023-03-17T10:55:54.323Z,10.95
2023-03-17T10:59:05.382Z,11.12
2023-03-17T11:02:25.620Z,11.18
2023-03-17T11:05:31.425Z,11.13
2023-03-17T11:08:41.602Z,11.26
2023-03-17T11:11:49.665Z,11.35
2023-03-17T11:15:00.610Z,11.33
2023-03-17T11:18:14.533Z,11.59
2023-03-17T11:21:27.885Z,11.85
2023-03-17T11:24:41.555Z,11.95
2023-03-17T11:27:54.202Z,12.22
2023-03-17T11:31:10.619Z,12.59
2023-03-17T11:34:29.982Z,12.78
2023-03-17T11:38:00.123Z,12.87
2023-03-17T11:41:26.298Z,12.93
2023-03-17T11:44:56.265Z,13.07
2023-03-17T11:48:17.303Z,13.10
2023-03-17T11:51:30.497Z,13.09
2023-03-17T11:54:48.937Z,13.13
2023-03-17T11:58:00.160Z,12.99
2023-03-17T12:01:10.332Z,13.16
2023-03-17T12:04:26.922Z,13.14
2023-03-17T12:07:37.374Z,13.37
2023-03-17T12:10:49.716Z,13.41
2023-03-17T12:14:01.025Z,13.49
2023-03-17T12:17:16.171Z,13.42
2023-03-17T12:20:27.884Z,13.45
2023-03-17T12:23:45.549Z,13.81
2023-03-17T12:26:59.330Z,14.60
2023-03-17T12:30:18.640Z,16.01
2023-03-17T12:33:32.184Z,17.79
2023-03-17T12:36:38.215Z,19.45
2023-03-17T12:39:54.710Z,20.81
2023-03-17T12:43:30.774Z,22.80
2023-03-17T12:47:12.274Z,24.98
2023-03-17T12:50:50.408Z,26.02
2023-03-17T12:53:55.240Z,27.09
2023-03-17T12:57:20.049Z,28.24
2023-03-17T13:00:30.159Z,28.95
2023-03-17T13:03:38.726Z,29.14
2023-03-17T13:06:46.750Z,29.42
2023-03-17T13:10:13.557Z,28.31
2023-03-17T13:13:49.404Z,26.34
2023-03-17T13:16:53.985Z,24.37
2023-03-17T13:20:18.348Z,24.68
2023-03-17T13:23:35.540Z,25.62
2023-03-17T13:26:56.419Z,26.39
2023-03-17T13:31:00.480Z,26.68
2023-03-17T13:34:15.179Z,27.12
2023-03-17T13:37:31.714Z,26.63
2023-03-17T13:40:54.488Z,27.13
2023-03-17T13:44:25.276Z,27.64
2023-03-17T13:47:35.936Z,29.34
2023-03-17T13:50:41.968Z,30.21
2023-03-17T13:53:54.623Z,30.34
2023-03-17T13:57:01.618Z,29.19
2023-03-17T14:00:24.603Z,28.44
2023-03-17T14:03:40.103Z,28.60
2023-03-17T14:06:44.697Z,29.40
2023-03-17T14:09:57.589Z,29.57
2023-03-17T14:13:15.161Z,29.42
2023-03-17T14:16:28.008Z,29.25
2023-03-17T14:19:32.289Z,28.82
2023-03-17T14:22:45.495Z,27.40
2023-03-17T14:25:52.020Z,26.57
2023-03-17T14:28:56.404Z,26.26
2023-03-17T14:32:07.346Z,25.63
2023-03-17T14:35:15.194Z,26.51
2023-03-17T14:38:22.906Z,26.69
2023-03-17T14:41:30.779Z,26.79
2023-03-17T14:44:40.347Z,26.60
2023-03-17T14:47:44.304Z,26.05
2023-03-17T14:50:55.642Z,26.51
2023-03-17T14:54:03.625Z,26.87
2023-03-17T14:57:16.527Z,27.14
2023-03-17T15:00:37.160Z,26.75
2023-03-17T15:03:53.382Z,24.97
2023-03-17T15:06:59.570Z,23.63
2023-03-17T15:10:06.728Z,23.05
2023-03-17T15:13:14.905Z,22.74
2023-03-17T15:16:24.987Z,21.91
2023-03-17T15:19:36.362Z,20.76
2023-03-17T15:22:45.156Z,20.15
2023-03-17T15:26:09.942Z,20.92
2023-03-17T15:29:15.475Z,22.11
2023-03-17T15:32:23.479Z,22.54
2023-03-17T15:35:28.226Z,22.34
2023-03-17T15:38:33.589Z,21.99
2023-03-17T15:41:37.443Z,21.79
2023-03-17T15:47:48.212Z,21.58
2023-03-17T15:50:54.096Z,21.16
2023-03-17T15:53:58.120Z,20.51
2023-03-17T15:57:02.026Z,20.20
2023-03-17T16:00:09.671Z,20.15
2023-03-17T16:03:25.972Z,19.64
2023-03-17T16:06:30.459Z,19.13
2023-03-17T16:09:35.792Z,18.19
2023-03-17T16:12:39.587Z,16.93
2023-03-17T16:15:51.894Z,15.68
2023-03-17T16:18:56.014Z,14.58
2023-03-17T16:22:00.289Z,13.76
2023-03-17T16:25:04.825Z,13.04
2023-03-17T16:28:17.465Z,12.35
2023-03-17T16:31:29.265Z,11.83
2023-03-17T16:34:33.294Z,11.41
2023-03-17T16:37:37.445Z,10.99
2023-03-17T16:40:42.811Z,10.63
2023-03-17T16:43:55.312Z,10.30
2023-03-17T16:47:00.737Z,9.97
2023-03-17T16:50:15.012Z,9.66
2023-03-17T16:53:18.949Z,9.36
2023-03-17T16:56:28.239Z,9.06
2023-03-17T16:59:33.876Z,8.83
2023-03-17T17:02:39.257Z,8.61
2023-03-17T17:05:45.169Z,8.42
2023-03-17T17:08:51.535Z,8.24
2023-03-17T17:11:55.139Z,8.08
2023-03-17T17:14:59.321Z,7.92
2023-03-17T17:18:08.210Z,7.78
2023-03-17T17:21:12.318Z,7.62
2023-03-17T17:24:17.193Z,7.50
2023-03-17T17:27:21.683Z,7.38
2023-03-17T17:30:28.121Z,7.25
2023-03-17T17:33:33.615Z,7.12
2023-03-17T17:36:37.356Z,7.01
2023-03-17T17:39:41.546Z,6.92
2023-03-17T17:42:47.022Z,6.83
2023-03-17T17:45:52.431Z,6.75
2023-03-17T17:48:57.466Z,6.66
2023-03-17T17:52:01.572Z,6.59
2023-03-17T17:55:06.253Z,6.52
2023-03-17T17:58:14.028Z,6.44
2023-03-17T18:01:22.015Z,6.34
2023-03-17T18:04:27.928Z,6.26
2023-03-17T18:07:31.578Z,6.20
2023-03-17T18:10:36.282Z,6.12
2023-03-17T18:13:40.952Z,6.03
2023-03-17T18:16:45.323Z,5.95
2023-03-17T18:19:50.469Z,5.89
2023-03-17T18:22:55.176Z,5.84
2023-03-17T18:26:49.400Z,5.73
2023-03-17T18:29:54.174Z,5.63
2023-03-17T18:33:05.647Z,5.58
2023-03-17T18:36:12.203Z,5.51
2023-03-17T18:39:18.111Z,5.45
2023-03-17T18:42:22.399Z,5.40
2023-03-17T18:45:26.065Z,5.36
2023-03-17T18:48:29.968Z,5.31
2023-03-17T18:51:35.540Z,5.26
2023-03-17T18:54:39.728Z,5.22
2023-03-17T18:57:44.913Z,5.19
2023-03-17T19:00:50.744Z,5.16
2023-03-17T19:03:55.142Z,5.14
2023-03-17T19:07:00.825Z,5.15
2023-03-17T19:10:05.685Z,5.12
2023-03-17T19:13:10.347Z,5.10
2023-03-17T19:16:15.255Z,5.05
2023-03-17T19:19:19.468Z,5.03
2023-03-17T19:22:24.881Z,5.00
2023-03-17T19:25:28.893Z,5.01
2023-03-17T19:28:32.908Z,5.02
2023-03-17T19:31:41.623Z,5.06
2023-03-17T19:34:47.681Z,5.10
2023-03-17T19:37:53.479Z,5.14
2023-03-17T19:40:57.153Z,5.21
2023-03-17T19:44:06.595Z,5.18
2023-03-17T19:47:10.182Z,5.19
2023-03-17T19:50:14.597Z,5.20
2023-03-17T19:53:20.074Z,5.25
2023-03-17T19:56:24.765Z,5.27
2023-03-17T19:59:28.495Z,5.23
2023-03-17T20:02:32.633Z,5.19
2023-03-17T20:05:36.747Z,5.18
2023-03-17T20:08:43.946Z,5.16
2023-03-17T20:11:47.642Z,5.16
2023-03-17T20:14:52.203Z,5.11
2023-03-17T20:17:56.130Z,5.11
2023-03-17T20:21:05.245Z,5.12
2023-03-17T20:24:14.644Z,5.12
2023-03-17T20:27:19.707Z,5.11
2023-03-17T20:30:23.525Z,5.12
2023-03-17T20:33:27.881Z,5.12
2023-03-17T20:36:31.491Z,5.11
2023-03-17T20:39:38.115Z,5.07
2023-03-17T20:42:41.845Z,5.04
2023-03-17T20:45:46.982Z,5.00
2023-03-17T20:48:52.163Z,4.96
2023-03-17T20:51:56.293Z,4.89
2023-03-17T20:55:03.874Z,4.83
2023-03-17T20:58:08.415Z,4.75
2023-03-17T21:01:13.601Z,4.70
2023-03-17T21:04:20.821Z,4.63
2023-03-17T21:07:24.820Z,4.57
2023-03-17T21:10:30.644Z,4.48
2023-03-17T21:13:35.045Z,4.44
2023-03-17T21:16:42.120Z,4.37
2023-03-17T21:19:47.506Z,4.30
2023-03-17T21:22:55.631Z,4.23
2023-03-17T21:26:01.012Z,4.17
2023-03-17T21:29:05.891Z,4.13
2023-03-17T21:32:09.619Z,4.09
2023-03-17T21:35:14.927Z,4.05
2023-03-17T21:38:18.629Z,4.02
2023-03-17T21:41:33.248Z,3.98
2023-03-17T21:44:37.344Z,3.91
2023-03-17T21:47:41.894Z,3.84
2023-03-17T21:50:46.771Z,3.80
2023-03-17T21:53:51.512Z,3.74
2023-03-17T21:56:57.296Z,3.71
2023-03-17T22:00:01.586Z,3.67
2023-03-17T22:03:05.399Z,3.63
2023-03-17T22:06:11.341Z,3.58
2023-03-17T22:09:16.501Z,3.56
2023-03-17T22:12:24.335Z,3.55
2023-03-17T22:15:29.230Z,3.53
2023-03-17T22:18:33.794Z,3.53
2023-03-17T22:21:37.815Z,3.51
2023-03-17T22:24:42.823Z,3.49
2023-03-17T22:27:47.800Z,3.46
2023-03-17T22:30:52.399Z,3.43
2023-03-17T22:33:58.765Z,3.39
2023-03-17T22:37:02.731Z,3.33
2023-03-17T22:40:08.484Z,3.29
2023-03-17T22:43:13.935Z,3.25
2023-03-17T22:46:18.949Z,3.19
2023-03-17T22:49:23.680Z,3.15
2023-03-17T22:52:27.670Z,3.11
2023-03-17T22:55:31.943Z,3.08
2023-03-17T22:58:37.268Z,3.03
2023-03-17T23:01:41.371Z,2.97
2023-03-17T23:04:45.569Z,2.93
2023-03-17T23:07:51.549Z,2.86
2023-03-17T23:10:56.825Z,2.84
2023-03-17T23:14:02.807Z,2.78
2023-03-17T23:17:08.015Z,2.73
2023-03-17T23:20:13.762Z,2.69
2023-03-17T23:23:20.010Z,2.64
2023-03-17T23:26:24.471Z,2.60
2023-03-17T23:29:29.542Z,2.56
2023-03-17T23:32:34.221Z,2.55
2023-03-17T23:35:38.174Z,2.48
2023-03-17T23:38:44.012Z,2.46
2023-03-17T23:41:47.508Z,2.45
2023-03-17T23:44:52.959Z,2.44
2023-03-17T23:47:57.626Z,2.45
2023-03-17T23:51:01.668Z,2.41
2023-03-17T23:54:07.768Z,2.37
2023-03-17T23:57:13.173Z,2.34
